Time;durP1;ratioP1;P1;durP2;ratioP2;P2;SDS_P1;SDS_P2;PMS_P1;PMS_P2;Temp;Humidity;BMP_temperature;BMP_pressure;BME280_temperature;BME280_humidity;BME280_pressure;Samples;Min_cycle;Max_cycle;Signal;HPM_P1;HPM_P2
2021/06/02 00:04:08;;;;;;;7.70;5.78;;;;;;;17.91;50.35;100352.78;8483804;33;20161;-71
2021/06/02 00:09:13;;;;;;;8.82;5.50;;;;;;;17.79;50.49;100362.31;8522014;33;20149;-70
2021/06/02 00:14:18;;;;;;;7.10;5.50;;;;;;;17.71;51.53;100355.00;8519828;33;20193;-70
2021/06/02 00:19:21;;;;;;;6.68;5.55;;;;;;;17.46;52.85;100367.75;8517414;33;20422;-71
2021/06/02 00:24:26;;;;;;;9.32;5.63;;;;;;;17.15;53.50;100362.16;8515172;33;20507;-70
2021/06/02 00:29:31;;;;;;;7.68;5.70;;;;;;;17.11;54.06;100367.00;8515433;33;20435;-70
2021/06/02 00:34:36;;;;;;;7.40;5.95;;;;;;;17.20;53.39;100368.78;8516619;33;20518;-71
2021/06/02 00:39:41;;;;;;;7.47;5.20;;;;;;;17.15;53.77;100363.00;8516820;33;20136;-71
2021/06/02 00:44:44;;;;;;;8.38;5.72;;;;;;;16.77;54.54;100351.69;8571238;28;20158;-72
2021/06/02 00:49:47;;;;;;;6.95;5.57;;;;;;;16.64;54.62;100351.31;8646794;33;20132;-72
2021/06/02 00:54:52;;;;;;;8.98;5.65;;;;;;;16.51;54.84;100351.78;8637233;33;20147;-73
2021/06/02 01:00:05;;;;;;;8.07;5.93;;;;;;;16.39;55.85;100365.81;8637983;33;20448;-73
2021/06/02 01:05:09;;;;;;;6.63;5.45;;;;;;;16.33;56.03;100368.13;8637608;33;20135;-72
2021/06/02 01:10:13;;;;;;;9.02;6.03;;;;;;;16.36;56.48;100356.97;8644878;33;20142;-73
2021/06/02 01:15:19;;;;;;;8.13;5.40;;;;;;;16.38;56.51;100359.53;8650966;33;20425;-72
2021/06/02 01:20:22;;;;;;;9.10;5.78;;;;;;;16.48;56.57;100354.84;8651802;33;20131;-73
2021/06/02 01:25:26;;;;;;;7.28;5.80;;;;;;;16.47;56.10;100344.16;8618191;33;20422;-72
2021/06/02 01:30:29;;;;;;;10.77;5.95;;;;;;;16.43;56.44;100359.03;8611958;33;20416;-72
2021/06/02 01:35:48;;;;;;;9.85;6.00;;;;;;;16.37;56.71;100352.41;8633165;33;20922;-72
2021/06/02 01:41:20;;;;;;;7.18;5.30;;;;;;;16.33;56.19;100359.16;8635479;33;20146;-72
2021/06/02 01:46:46;;;;;;;14.30;5.38;;;;;;;16.32;56.74;100344.78;8599629;33;20422;-73
2021/06/02 01:52:28;;;;;;;8.63;6.05;;;;;;;16.39;57.05;100344.97;8634993;33;20151;-72
2021/06/02 01:58:03;;;;;;;9.82;6.30;;;;;;;16.53;56.49;100346.19;8634874;33;20396;-72
2021/06/02 02:03:46;;;;;;;8.27;5.68;;;;;;;16.51;56.45;100337.38;8634918;33;20146;-72
2021/06/02 02:09:03;;;;;;;8.98;5.70;;;;;;;16.36;56.76;100338.00;8633819;33;20150;-72
2021/06/02 02:14:30;;;;;;;7.93;6.15;;;;;;;16.54;56.75;100340.63;8634230;33;20422;-73
2021/06/02 02:20:03;;;;;;;8.23;5.65;;;;;;;16.63;56.21;100333.34;8635467;33;20411;-72
2021/06/02 02:25:11;;;;;;;8.95;6.28;;;;;;;16.64;56.43;100339.63;8613132;33;20456;-73
2021/06/02 02:30:24;;;;;;;9.60;6.00;;;;;;;16.57;56.73;100334.88;8635929;33;20249;-73
2021/06/02 02:35:35;;;;;;;8.00;5.78;;;;;;;16.41;57.15;100334.81;8632496;33;20136;-73
2021/06/02 02:40:56;;;;;;;7.47;5.43;;;;;;;16.53;56.20;100319.06;8630950;33;20423;-73
2021/06/02 02:46:08;;;;;;;8.38;6.20;;;;;;;16.48;56.22;100321.44;8630161;33;20455;-71
2021/06/02 02:51:26;;;;;;;8.05;6.20;;;;;;;16.28;57.07;100329.00;8629197;33;20180;-73
2021/06/02 02:56:40;;;;;;;10.40;6.20;;;;;;;16.04;57.90;100330.53;8634238;33;20169;-73
2021/06/02 03:01:53;;;;;;;7.75;5.45;;;;;;;15.93;58.18;100337.09;8637644;33;20135;-73
2021/06/02 03:06:59;;;;;;;9.23;6.50;;;;;;;15.86;58.57;100332.47;8638096;33;20412;-72
2021/06/02 03:12:24;;;;;;;9.20;5.68;;;;;;;15.67;59.38;100326.25;8632406;33;20658;-72
2021/06/02 03:17:34;;;;;;;8.30;6.22;;;;;;;15.63;59.52;100333.00;8628003;33;20139;-73
2021/06/02 03:23:09;;;;;;;7.60;6.28;;;;;;;15.57;59.17;100322.78;8627445;33;20361;-73
2021/06/02 03:28:31;;;;;;;7.85;5.65;;;;;;;15.57;59.50;100335.47;8626508;33;20395;-73
2021/06/02 03:33:56;;;;;;;7.60;5.70;;;;;;;14.76;61.70;100334.56;8626929;33;20415;-73
2021/06/02 03:39:08;;;;;;;9.07;6.93;;;;;;;14.98;61.97;100340.53;8626250;33;20402;-73
2021/06/02 03:44:28;;;;;;;10.27;5.97;;;;;;;15.15;61.50;100336.97;8634206;33;21003;-73
2021/06/02 03:49:45;;;;;;;10.40;6.25;;;;;;;15.30;61.27;100353.50;8628991;33;20139;-73
2021/06/02 03:54:54;;;;;;;9.13;6.00;;;;;;;15.45;60.54;100346.56;8607385;33;20963;-73
2021/06/02 04:00:08;;;;;;;10.93;6.75;;;;;;;15.72;60.04;100343.91;8635423;33;20407;-73
2021/06/02 04:05:33;;;;;;;9.68;6.07;;;;;;;15.83;59.57;100341.75;8637201;33;20427;-73
2021/06/02 04:10:45;;;;;;;9.35;6.72;;;;;;;15.81;59.46;100348.34;8638619;33;20432;-73
2021/06/02 04:15:49;;;;;;;14.55;7.65;;;;;;;15.93;58.78;100341.63;8638438;33;20418;-73
2021/06/02 04:20:54;;;;;;;12.07;7.45;;;;;;;15.91;58.95;100346.38;8636053;33;20847;-73
2021/06/02 04:26:01;;;;;;;12.68;7.97;;;;;;;15.80;58.59;100347.50;8633107;33;20135;-73
2021/06/02 04:31:06;;;;;;;12.93;8.32;;;;;;;15.84;58.89;100346.16;8629669;33;20143;-73
2021/06/02 04:36:12;;;;;;;14.82;9.15;;;;;;;15.96;58.82;100341.31;8627652;33;20425;-73
2021/06/02 04:41:16;;;;;;;13.20;8.45;;;;;;;15.98;58.89;100338.47;8627223;33;20424;-72
2021/06/02 04:46:21;;;;;;;14.88;8.27;;;;;;;16.10;58.79;100343.44;8623210;33;20819;-73
2021/06/02 04:52:23;;;;;;;11.70;7.38;;;;;;;16.20;58.42;100348.72;8598736;33;20155;-73
2021/06/02 04:58:24;;;;;;;7.95;4.43;;;;;;;16.43;57.60;100348.19;8628072;33;21056;-73
2021/06/02 05:04:31;;;;;;;7.93;5.28;;;;;;;16.62;56.99;100342.50;8592083;33;20868;-73
2021/06/02 05:10:29;;;;;;;11.75;6.63;;;;;;;16.84;56.07;100348.31;8624239;33;20483;-73
2021/06/02 05:16:27;;;;;;;7.80;5.95;;;;;;;16.96;55.91;100347.84;8592961;33;20396;-72
2021/06/02 05:22:07;;;;;;;6.93;5.00;;;;;;;17.09;54.96;100363.63;8591456;33;20962;-73
2021/06/02 05:28:04;;;;;;;15.25;7.07;;;;;;;17.22;54.46;100363.16;8607167;33;20409;-73
2021/06/02 05:33:54;;;;;;;11.45;5.63;;;;;;;17.25;54.36;100357.38;8582884;33;20411;-73
2021/06/02 05:39:32;;;;;;;8.07;5.72;;;;;;;17.41;54.93;100351.97;8606973;33;20412;-73
2021/06/02 05:45:17;;;;;;;8.68;5.38;;;;;;;17.64;53.88;100354.00;8584861;33;20415;-73
2021/06/02 05:51:10;;;;;;;7.55;5.25;;;;;;;17.81;53.41;100350.25;8569199;33;20566;-73
2021/06/02 05:57:08;;;;;;;7.35;5.47;;;;;;;18.23;52.46;100345.56;8553825;33;20399;-73
2021/06/02 06:03:05;;;;;;;7.90;5.10;;;;;;;18.70;50.46;100337.34;8552804;33;20399;-73
2021/06/02 06:08:56;;;;;;;8.65;5.38;;;;;;;19.14;50.03;100344.97;8532321;33;20402;-73
2021/06/02 06:14:31;;;;;;;9.23;5.50;;;;;;;19.60;49.75;100346.81;8556142;33;20624;-73
2021/06/02 06:20:29;;;;;;;8.75;5.18;;;;;;;19.97;48.85;100351.41;8602826;33;20297;-73
2021/06/02 06:25:37;;;;;;;6.07;5.17;;;;;;;19.95;49.06;100350.72;8610288;33;20448;-72
2021/06/02 06:30:42;;;;;;;8.05;5.22;;;;;;;20.11;48.06;100349.72;8663804;33;20173;-73
2021/06/02 06:35:49;;;;;;;7.45;5.65;;;;;;;19.86;47.43;100357.31;8658220;33;20151;-73
2021/06/02 06:40:53;;;;;;;6.57;4.90;;;;;;;19.34;49.07;100348.03;8631775;33;20440;-73
2021/06/02 06:45:59;;;;;;;8.23;5.35;;;;;;;19.31;49.71;100342.97;8646617;27;20438;-73
2021/06/02 06:51:05;;;;;;;7.03;5.53;;;;;;;19.51;49.30;100339.72;8608425;33;20436;-73
2021/06/02 06:56:10;;;;;;;7.68;5.80;;;;;;;19.49;49.69;100339.91;8579044;33;20460;-73
2021/06/02 07:01:15;;;;;;;8.23;5.47;;;;;;;19.80;49.38;100341.69;8599323;33;20554;-74
2021/06/02 07:06:25;;;;;;;7.78;6.20;;;;;;;20.09;49.52;100338.13;8599761;33;20441;-75
2021/06/02 07:11:28;;;;;;;8.45;5.93;;;;;;;20.42;48.23;100335.88;8600265;33;20980;-73
2021/06/02 07:16:35;;;;;;;9.27;6.07;;;;;;;20.52;48.51;100344.63;8604105;33;20478;-73
2021/06/02 07:21:43;;;;;;;7.65;5.85;;;;;;;20.84;49.01;100333.44;8580500;33;20428;-74
2021/06/02 07:26:47;;;;;;;11.52;5.85;;;;;;;21.19;48.21;100335.31;8595254;33;20307;-74
2021/06/02 07:31:56;;;;;;;10.52;6.40;;;;;;;21.51;46.68;100337.72;8527535;33;20239;-75
2021/06/02 07:37:01;;;;;;;10.07;6.05;;;;;;;21.83;46.32;100342.63;8523598;33;20136;-74
2021/06/02 07:42:04;;;;;;;10.20;5.53;;;;;;;21.88;45.89;100337.38;8525575;33;20412;-74
2021/06/02 07:47:07;;;;;;;6.50;5.53;;;;;;;22.21;45.64;100336.75;8523670;33;20433;-74
2021/06/02 07:52:31;;;;;;;7.13;5.63;;;;;;;22.47;43.87;100337.97;8558802;33;20129;-75
2021/06/02 07:57:33;;;;;;;7.85;5.65;;;;;;;22.37;44.68;100343.78;8614739;33;20144;-75
2021/06/02 08:02:36;;;;;;;9.80;5.65;;;;;;;23.06;44.02;100342.78;8612678;33;20239;-75
2021/06/02 08:07:42;;;;;;;7.53;5.28;;;;;;;23.62;42.45;100342.44;8613441;33;20159;-75
2021/06/02 08:12:46;;;;;;;8.63;5.78;;;;;;;23.94;40.96;100348.13;8586281;33;20214;-75
2021/06/02 08:17:50;;;;;;;9.75;5.80;;;;;;;24.27;39.91;100341.72;8609449;33;20458;-75
2021/06/02 08:22:54;;;;;;;8.90;5.45;;;;;;;25.33;38.95;100352.22;8586513;33;20152;-74
2021/06/02 08:27:57;;;;;;;9.27;5.72;;;;;;;26.63;37.31;100356.94;8613427;33;20964;-75
2021/06/02 08:33:00;;;;;;;5.80;5.20;;;;;;;27.16;35.90;100344.38;8606126;33;20448;-75
2021/06/02 08:38:04;;;;;;;6.32;5.07;;;;;;;26.90;35.48;100345.56;8602947;33;20152;-75
2021/06/02 08:43:07;;;;;;;7.45;5.60;;;;;;;26.51;35.79;100353.28;8603602;33;20150;-75
2021/06/02 08:48:12;;;;;;;8.52;5.60;;;;;;;26.25;36.15;100355.28;8600159;33;20136;-75
2021/06/02 08:53:18;;;;;;;8.18;5.57;;;;;;;26.42;36.25;100350.00;8589597;33;20140;-75
2021/06/02 08:58:23;;;;;;;8.00;5.22;;;;;;;26.69;35.04;100347.75;8539407;33;20416;-74
2021/06/02 09:03:30;;;;;;;7.90;5.50;;;;;;;26.97;35.47;100351.00;8550532;33;20417;-74
2021/06/02 09:08:39;;;;;;;7.50;5.60;;;;;;;26.19;34.59;100358.91;8551786;33;20405;-75
2021/06/02 09:13:43;;;;;;;6.55;5.10;;;;;;;25.81;37.39;100350.84;8551018;33;20412;-75
2021/06/02 09:18:50;;;;;;;9.48;5.25;;;;;;;25.73;36.94;100351.94;8514653;33;20203;-75
2021/06/02 09:23:55;;;;;;;5.80;5.10;;;;;;;26.26;36.08;100354.19;8505601;33;20422;-75
2021/06/02 09:29:01;;;;;;;6.60;4.88;;;;;;;26.59;35.33;100352.94;8508305;33;20149;-75
2021/06/02 09:34:13;;;;;;;8.25;5.18;;;;;;;26.99;33.58;100359.88;8505450;33;20432;-76
2021/06/02 09:39:21;;;;;;;5.90;4.80;;;;;;;27.26;34.70;100352.03;8505585;33;20136;-76
2021/06/02 09:44:26;;;;;;;5.93;5.03;;;;;;;27.86;34.34;100351.91;8499000;33;20867;-76
2021/06/02 09:49:32;;;;;;;5.45;4.78;;;;;;;27.86;33.62;100354.69;8505214;33;20415;-75
2021/06/02 09:54:36;;;;;;;5.72;4.55;;;;;;;27.84;33.17;100351.34;8501661;33;20797;-76
2021/06/02 09:59:54;;;;;;;5.15;4.40;;;;;;;28.16;31.38;100351.81;8478959;33;20131;-76
2021/06/02 10:05:02;;;;;;;7.93;5.05;;;;;;;28.73;31.74;100359.41;8502953;33;20398;-75
2021/06/02 10:10:13;;;;;;;5.95;4.43;;;;;;;28.80;31.20;100351.81;8502424;33;20324;-75
2021/06/02 10:15:27;;;;;;;6.70;4.82;;;;;;;28.88;30.59;100364.38;8504243;33;20453;-75
2021/06/02 10:20:30;;;;;;;6.88;4.60;;;;;;;29.13;30.39;100358.56;8504525;33;20431;-75
2021/06/02 10:25:34;;;;;;;8.57;5.05;;;;;;;29.60;29.69;100361.06;8480384;33;20418;-76
2021/06/02 10:30:37;;;;;;;5.50;4.68;;;;;;;29.75;28.63;100363.25;8510270;33;20384;-76
2021/06/02 10:35:40;;;;;;;8.90;4.90;;;;;;;29.40;28.30;100363.44;8519192;33;20474;-75
2021/06/02 10:40:46;;;;;;;5.22;4.70;;;;;;;29.36;28.99;100357.59;8504547;33;20408;-75
2021/06/02 10:45:53;;;;;;;7.95;5.50;;;;;;;29.24;29.22;100363.19;8504770;33;20418;-76
2021/06/02 10:50:56;;;;;;;7.07;5.13;;;;;;;28.90;29.94;100353.94;8505498;33;20391;-77
2021/06/02 10:56:02;;;;;;;6.50;4.78;;;;;;;28.04;30.77;100354.59;8506173;33;20289;-74
2021/06/02 11:01:14;;;;;;;6.82;4.97;;;;;;;29.14;30.70;100354.69;8518279;33;20390;-74
2021/06/02 11:06:39;;;;;;;5.05;4.10;;;;;;;29.10;27.82;100357.13;8509729;33;20135;-74
2021/06/02 11:11:45;;;;;;;7.35;4.47;;;;;;;30.26;28.07;100352.97;8504897;33;20726;-74
2021/06/02 11:16:49;;;;;;;6.35;4.88;;;;;;;31.22;28.16;100343.31;8504385;33;20132;-74
2021/06/02 11:22:02;;;;;;;6.32;4.20;;;;;;;30.45;26.19;100347.94;8503964;33;20409;-74
2021/06/02 11:27:35;;;;;;;4.93;3.72;;;;;;;31.06;26.36;100350.59;8504561;33;20839;-74
2021/06/02 11:33:14;;;;;;;6.15;4.10;;;;;;;30.37;24.90;100362.25;8497041;33;20408;-76
2021/06/02 11:38:17;;;;;;;5.32;3.70;;;;;;;29.39;28.31;100354.31;8502698;33;20416;-76
2021/06/02 11:43:22;;;;;;;8.63;4.20;;;;;;;29.52;26.83;100361.47;8502756;33;20120;-76
2021/06/02 11:48:29;;;;;;;5.22;4.72;;;;;;;29.43;26.86;100351.88;8502211;33;20421;-75
2021/06/02 11:53:44;;;;;;;3.75;3.38;;;;;;;30.38;24.73;100359.19;8501997;33;20147;-75
2021/06/02 11:58:51;;;;;;;4.10;3.70;;;;;;;30.47;24.58;100365.13;8502138;33;20418;-75
2021/06/02 12:03:58;;;;;;;5.95;3.92;;;;;;;31.38;26.12;100355.38;8503542;33;20423;-76
2021/06/02 12:09:07;;;;;;;57.30;11.90;;;;;;;32.14;24.07;100353.19;8503902;33;20715;-76
2021/06/02 12:14:25;;;;;;;4.22;3.67;;;;;;;32.71;22.85;100346.00;8503801;33;20422;-76
2021/06/02 12:19:33;;;;;;;4.07;3.67;;;;;;;32.69;23.98;100339.84;8504349;33;20201;-76
2021/06/02 12:24:36;;;;;;;5.50;3.75;;;;;;;32.29;24.22;100346.09;8503128;33;20500;-75
2021/06/02 12:29:40;;;;;;;4.93;4.03;;;;;;;32.63;24.67;100343.72;8504387;33;20417;-74
2021/06/02 12:34:44;;;;;;;5.53;4.40;;;;;;;32.93;23.59;100343.00;8503326;33;20401;-74
2021/06/02 12:39:47;;;;;;;3.83;3.47;;;;;;;32.82;23.78;100341.31;8504390;33;20124;-75
2021/06/02 12:44:51;;;;;;;4.57;4.03;;;;;;;33.19;23.46;100332.78;8505264;33;20419;-75
2021/06/02 12:49:56;;;;;;;4.35;3.75;;;;;;;32.96;22.75;100339.66;8505787;33;20417;-75
2021/06/02 12:55:14;;;;;;;4.50;3.97;;;;;;;32.87;23.80;100344.09;8501928;33;20736;-76
2021/06/02 13:00:19;;;;;;;7.03;4.28;;;;;;;33.48;25.05;100344.19;8500765;33;20421;-74
2021/06/02 13:05:24;;;;;;;4.28;3.75;;;;;;;33.00;24.35;100339.97;8503057;33;20136;-76
2021/06/02 13:10:39;;;;;;;4.63;4.13;;;;;;;30.68;25.41;100347.69;8506617;33;20396;-74
2021/06/02 13:15:45;;;;;;;4.22;3.78;;;;;;;29.56;26.83;100341.31;8502147;33;20124;-74
2021/06/02 13:20:48;;;;;;;4.30;3.80;;;;;;;30.47;26.43;100340.19;8501972;33;20412;-74
2021/06/02 13:26:02;;;;;;;6.32;4.00;;;;;;;30.57;26.79;100336.72;8503494;33;20914;-75
2021/06/02 13:31:06;;;;;;;4.40;3.95;;;;;;;30.10;26.29;100339.97;8482528;33;20132;-74
2021/06/02 13:36:11;;;;;;;4.78;4.38;;;;;;;30.04;28.63;100342.66;8483157;33;20491;-75
2021/06/02 13:41:22;;;;;;;4.28;3.92;;;;;;;29.96;27.40;100340.31;8509380;33;20427;-75
2021/06/02 13:46:29;;;;;;;5.85;4.40;;;;;;;30.57;26.81;100339.50;8509050;33;20139;-75
2021/06/02 13:51:33;;;;;;;5.63;4.50;;;;;;;31.59;26.72;100337.78;8508588;33;20659;-75
2021/06/02 13:57:00;;;;;;;4.60;4.20;;;;;;;31.23;26.89;100339.44;8507656;33;20462;-74
2021/06/02 14:02:07;;;;;;;4.82;4.40;;;;;;;30.58;28.20;100336.47;8505969;33;20418;-74
2021/06/02 14:07:13;;;;;;;5.07;4.57;;;;;;;29.98;28.49;100338.13;8505029;33;20398;-74
2021/06/02 14:12:17;;;;;;;4.72;4.07;;;;;;;30.21;28.29;100339.03;8505820;33;20120;-75
2021/06/02 14:17:21;;;;;;;9.13;4.25;;;;;;;31.14;28.61;100331.53;8507588;33;20415;-74
2021/06/02 14:22:24;;;;;;;5.32;4.60;;;;;;;31.80;26.00;100327.72;8508759;33;20868;-74
2021/06/02 14:27:26;;;;;;;5.80;4.40;;;;;;;32.30;24.72;100319.97;8507763;33;20120;-74
2021/06/02 14:32:30;;;;;;;5.53;4.28;;;;;;;30.60;27.51;100327.88;8506024;33;20411;-75
2021/06/02 14:37:34;;;;;;;5.10;3.65;;;;;;;29.94;28.58;100330.59;8504948;33;20128;-74
2021/06/02 14:42:37;;;;;;;4.47;3.80;;;;;;;29.61;28.86;100328.69;8506299;33;20140;-75
2021/06/02 14:47:41;;;;;;;5.28;4.07;;;;;;;29.74;27.95;100329.19;8503990;33;20395;-74
2021/06/02 14:52:44;;;;;;;6.22;3.47;;;;;;;29.91;29.15;100326.41;8503742;33;20922;-74
2021/06/02 14:57:47;;;;;;;5.22;4.07;;;;;;;30.33;27.39;100325.06;8502756;33;20234;-75
2021/06/02 15:02:52;;;;;;;4.30;3.80;;;;;;;30.33;28.08;100317.56;8502975;33;20482;-74
2021/06/02 15:07:55;;;;;;;4.93;3.93;;;;;;;30.01;27.25;100318.25;8502451;33;20447;-74
2021/06/02 15:12:59;;;;;;;4.65;3.03;;;;;;;29.61;27.31;100320.41;8503210;33;20418;-75
2021/06/02 15:18:03;;;;;;;3.13;2.83;;;;;;;29.73;27.08;100319.22;8508102;33;20411;-75
2021/06/02 15:23:06;;;;;;;4.93;3.22;;;;;;;30.28;26.25;100312.00;8481670;33;20672;-74
2021/06/02 15:28:28;;;;;;;3.72;3.42;;;;;;;30.10;26.64;100317.81;8504882;33;20155;-75
2021/06/02 15:33:40;;;;;;;4.40;3.67;;;;;;;30.54;25.99;100312.28;8504239;33;20217;-75
2021/06/02 15:38:43;;;;;;;5.82;3.20;;;;;;;30.60;26.59;100316.78;8503246;33;20422;-74
2021/06/02 15:43:45;;;;;;;3.50;3.20;;;;;;;29.36;28.19;100314.16;8508391;33;20413;-74
2021/06/02 15:48:50;;;;;;;3.67;3.35;;;;;;;28.99;28.57;100311.00;8482420;33;20403;-74
2021/06/02 15:53:53;;;;;;;5.70;3.50;;;;;;;29.17;28.95;100307.19;8506016;33;20883;-75
2021/06/02 15:58:59;;;;;;;3.42;3.13;;;;;;;30.54;27.30;100315.06;8505975;33;20415;-74
2021/06/02 16:04:03;;;;;;;6.25;3.08;;;;;;;31.98;26.09;100307.84;8481389;33;20186;-75
2021/06/02 16:09:06;;;;;;;4.65;3.10;;;;;;;33.29;24.41;100301.31;8506879;33;20437;-75
2021/06/02 16:14:09;;;;;;;4.13;3.25;;;;;;;33.69;24.21;100299.66;8502614;33;20395;-75
2021/06/02 16:19:12;;;;;;;4.88;3.22;;;;;;;33.58;23.54;100298.81;8503340;33;20414;-75
2021/06/02 16:24:15;;;;;;;4.72;3.20;;;;;;;33.48;23.49;100290.47;8502010;33;20418;-74
2021/06/02 16:29:19;;;;;;;3.17;2.85;;;;;;;34.48;22.34;100288.84;8511192;33;20620;-75
2021/06/02 16:34:24;;;;;;;3.33;3.03;;;;;;;37.37;20.50;100290.78;8504952;33;20388;-75
2021/06/02 16:39:29;;;;;;;3.85;3.40;;;;;;;40.21;17.61;100280.09;8505582;33;20407;-75
2021/06/02 16:44:32;;;;;;;2.88;2.67;;;;;;;40.92;17.39;100282.69;8478268;33;20431;-75
2021/06/02 16:49:36;;;;;;;3.45;2.63;;;;;;;42.07;17.05;100288.56;8503524;33;20429;-75
2021/06/02 16:54:39;;;;;;;3.70;2.67;;;;;;;40.94;17.14;100290.78;8502757;33;20155;-75
2021/06/02 16:59:43;;;;;;;2.92;2.63;;;;;;;40.65;16.98;100291.41;8503968;33;20420;-75
2021/06/02 17:04:48;;;;;;;4.57;2.70;;;;;;;39.22;17.97;100291.44;8500997;33;20612;-75
2021/06/02 17:09:53;;;;;;;4.70;2.70;;;;;;;39.90;17.54;100289.38;8501243;33;20127;-75
2021/06/02 17:14:56;;;;;;;4.90;2.92;;;;;;;40.14;17.85;100293.75;8482089;33;20447;-74
2021/06/02 17:20:03;;;;;;;3.53;2.88;;;;;;;39.59;17.72;100286.56;8510659;33;20834;-74
2021/06/02 17:25:07;;;;;;;3.15;2.88;;;;;;;38.18;18.97;100292.38;8543568;33;20563;-75
2021/06/02 17:30:12;;;;;;;3.05;2.75;;;;;;;35.23;21.64;100297.88;8829734;33;20203;-75
2021/06/02 17:35:16;;;;;;;3.15;2.70;;;;;;;31.77;24.94;100304.09;8829476;33;20738;-73
2021/06/02 17:40:20;;;;;;;3.25;2.78;;;;;;;29.73;26.99;100304.53;8829759;33;20179;-75
2021/06/02 17:45:22;;;;;;;5.63;2.88;;;;;;;28.10;29.63;100305.03;8829165;33;20211;-73
2021/06/02 17:50:27;;;;;;;4.20;3.00;;;;;;;28.00;30.21;100309.25;8829858;33;20188;-73
2021/06/02 17:55:30;;;;;;;3.30;3.00;;;;;;;28.08;30.26;100307.19;8829081;33;20211;-74
2021/06/02 18:00:35;;;;;;;4.30;3.00;;;;;;;28.13;30.50;100313.66;8829290;33;20195;-74
2021/06/02 18:05:40;;;;;;;3.70;2.83;;;;;;;27.89;30.93;100321.06;8828944;33;20202;-74
2021/06/02 18:10:43;;;;;;;4.13;3.13;;;;;;;26.91;32.43;100328.00;8829651;33;20183;-74
2021/06/02 18:15:46;;;;;;;4.65;3.05;;;;;;;26.29;33.65;100328.13;8828968;33;20730;-74
2021/06/02 18:20:51;;;;;;;4.30;2.95;;;;;;;25.75;34.00;100337.97;8829107;33;20187;-74
2021/06/02 18:26:01;;;;;;;3.38;3.08;;;;;;;25.50;34.96;100349.78;8803807;33;20215;-75
2021/06/02 18:31:06;;;;;;;3.50;3.20;;;;;;;25.26;35.33;100345.09;8804388;33;20187;-75
2021/06/02 18:36:10;;;;;;;4.97;3.20;;;;;;;25.14;35.59;100342.22;8828605;33;20238;-75
2021/06/02 18:41:13;;;;;;;5.25;3.60;;;;;;;25.06;35.59;100342.50;8829243;33;20190;-75
2021/06/02 18:46:16;;;;;;;3.67;3.20;;;;;;;24.93;36.06;100357.97;8828726;33;20207;-75
2021/06/02 18:51:20;;;;;;;3.78;2.97;;;;;;;24.84;36.29;100359.28;8828450;33;20188;-75
2021/06/02 18:56:23;;;;;;;3.97;3.60;;;;;;;24.69;36.74;100366.97;8827717;33;20209;-76
2021/06/02 19:01:28;;;;;;;3.72;3.42;;;;;;;24.47;37.04;100366.41;8828653;33;20198;-75
2021/06/02 19:06:32;;;;;;;5.65;3.70;;;;;;;24.24;37.79;100372.34;8828518;33;20616;-75
2021/06/02 19:11:37;;;;;;;4.72;3.30;;;;;;;24.06;37.77;100373.88;8827966;33;20208;-75
2021/06/02 19:16:40;;;;;;;4.00;3.58;;;;;;;23.86;38.13;100373.03;8828063;33;20200;-74
2021/06/02 19:21:45;;;;;;;6.15;3.22;;;;;;;23.59;38.63;100385.91;8827291;33;20184;-74
2021/06/02 19:26:48;;;;;;;8.23;4.13;;;;;;;23.41;39.05;100392.81;8826808;33;20272;-73
2021/06/02 19:31:51;;;;;;;6.88;4.05;;;;;;;23.27;39.52;100396.59;8827420;33;20180;-74
2021/06/02 19:36:55;;;;;;;6.72;4.90;;;;;;;23.11;39.74;100405.22;8826677;33;20199;-74
2021/06/02 19:41:58;;;;;;;3.90;3.17;;;;;;;22.88;40.29;100419.22;8826529;33;20186;-74
2021/06/02 19:47:01;;;;;;;3.75;3.45;;;;;;;22.65;40.75;100428.56;8825940;33;20223;-73
2021/06/02 19:52:07;;;;;;;3.97;3.40;;;;;;;22.50;41.11;100436.94;8826760;33;20671;-73
2021/06/02 19:57:12;;;;;;;5.18;3.50;;;;;;;22.40;41.36;100446.50;8826572;33;20708;-73
2021/06/02 20:02:15;;;;;;;6.20;3.60;;;;;;;22.25;41.75;100447.47;8803323;33;20191;-73
2021/06/02 20:07:19;;;;;;;4.15;3.38;;;;;;;22.12;42.09;100452.84;8826213;33;20196;-73
2021/06/02 20:12:25;;;;;;;5.45;3.78;;;;;;;21.92;42.07;100465.53;8825936;33;20187;-73
2021/06/02 20:17:28;;;;;;;4.22;3.83;;;;;;;21.75;43.03;100460.34;8826576;33;20595;-73
2021/06/02 20:22:34;;;;;;;4.40;4.00;;;;;;;21.63;43.05;100470.88;8826671;33;20183;-74
2021/06/02 20:27:37;;;;;;;6.13;4.50;;;;;;;21.43;43.70;100475.31;8826191;33;20211;-73
2021/06/02 20:32:40;;;;;;;4.38;3.97;;;;;;;21.34;43.87;100481.94;8826335;33;20676;-73
2021/06/02 20:37:45;;;;;;;6.95;4.53;;;;;;;21.31;44.25;100491.38;8824413;33;20221;-73
2021/06/02 20:42:50;;;;;;;6.53;4.40;;;;;;;21.18;44.62;100477.56;8826029;33;20184;-73
2021/06/02 20:47:53;;;;;;;5.13;4.03;;;;;;;20.98;45.05;100488.16;8829338;33;20171;-74
2021/06/02 20:52:58;;;;;;;4.95;4.03;;;;;;;20.94;45.43;100495.06;8831135;33;20195;-75
2021/06/02 20:58:01;;;;;;;4.72;4.10;;;;;;;20.92;45.32;100497.97;8806099;33;20228;-75
2021/06/02 21:03:05;;;;;;;6.57;4.45;;;;;;;20.83;45.83;100498.28;8831345;33;20196;-73
2021/06/02 21:08:09;;;;;;;6.82;4.50;;;;;;;20.61;46.19;100500.06;8806529;33;20188;-75
2021/06/02 21:13:12;;;;;;;5.22;4.28;;;;;;;20.43;46.45;100506.75;8831039;33;20201;-75
2021/06/02 21:18:15;;;;;;;6.15;4.43;;;;;;;20.36;46.81;100504.94;8830654;33;20715;-75
2021/06/02 21:23:19;;;;;;;6.68;4.70;;;;;;;20.25;46.86;100511.66;8805744;33;20215;-74
2021/06/02 21:28:22;;;;;;;8.48;5.15;;;;;;;20.17;47.26;100523.47;8805409;33;20183;-75
2021/06/02 21:33:25;;;;;;;5.60;4.53;;;;;;;20.14;47.30;100532.03;8830111;33;20214;-75
2021/06/02 21:38:30;;;;;;;6.22;4.97;;;;;;;20.07;47.25;100528.31;8804968;33;20223;-72
2021/06/02 21:43:32;;;;;;;5.80;4.95;;;;;;;20.00;47.45;100535.56;8829991;33;20218;-73
2021/06/02 21:48:35;;;;;;;6.95;5.10;;;;;;;20.00;47.15;100541.00;8829354;33;20660;-74
2021/06/02 21:53:39;;;;;;;7.82;5.60;;;;;;;20.01;47.20;100537.25;8829736;33;20446;-73
2021/06/02 21:58:46;;;;;;;5.97;5.28;;;;;;;19.95;47.21;100549.72;8828843;33;20290;-73
2021/06/02 22:03:49;;;;;;;8.07;5.30;;;;;;;19.76;47.21;100555.66;8829673;33;20203;-74
2021/06/02 22:08:53;;;;;;;5.63;5.05;;;;;;;19.87;47.06;100555.25;8828764;33;20191;-74
2021/06/02 22:13:55;;;;;;;9.23;5.40;;;;;;;19.86;46.83;100569.91;8828616;33;20210;-74
2021/06/02 22:18:58;;;;;;;5.93;5.32;;;;;;;19.84;46.66;100569.25;8828568;33;20230;-74
2021/06/02 22:24:04;;;;;;;6.88;4.85;;;;;;;19.83;46.88;100571.13;8828465;33;20222;-74
2021/06/02 22:29:06;;;;;;;6.32;5.40;;;;;;;19.66;47.18;100567.66;8828704;33;20171;-74
2021/06/02 22:34:09;;;;;;;6.78;4.90;;;;;;;19.50;47.55;100565.00;8810285;33;20306;-74
2021/06/02 22:39:13;;;;;;;6.82;5.28;;;;;;;19.45;47.60;100564.66;8828115;33;20208;-74
2021/06/02 22:44:16;;;;;;;7.05;5.38;;;;;;;19.35;47.90;100567.59;8827214;33;20207;-74
2021/06/02 22:49:19;;;;;;;6.72;5.57;;;;;;;19.18;48.23;100568.72;8827737;33;20190;-75
2021/06/02 22:54:22;;;;;;;5.63;4.80;;;;;;;19.18;48.16;100575.00;8826987;33;20202;-75
2021/06/02 22:59:27;;;;;;;6.95;5.15;;;;;;;19.18;48.10;100575.00;8827033;33;20211;-75
2021/06/02 23:04:29;;;;;;;8.10;4.80;;;;;;;19.14;47.91;100572.78;8826894;33;20204;-75
2021/06/02 23:09:33;;;;;;;5.72;5.22;;;;;;;19.06;48.24;100568.25;8826098;33;20179;-75
2021/06/02 23:14:36;;;;;;;6.38;5.03;;;;;;;18.96;48.30;100568.44;8826312;33;20203;-75
2021/06/02 23:19:39;;;;;;;7.93;4.80;;;;;;;18.92;48.36;100568.94;8826705;33;20700;-75
2021/06/02 23:24:43;;;;;;;6.78;4.97;;;;;;;18.93;48.29;100576.94;8826208;33;20242;-74
2021/06/02 23:29:46;;;;;;;5.20;4.80;;;;;;;18.85;48.48;100574.25;8826511;33;20183;-75
2021/06/02 23:34:49;;;;;;;7.47;5.20;;;;;;;18.88;48.46;100578.50;8825885;33;20195;-75
2021/06/02 23:39:53;;;;;;;6.95;4.82;;;;;;;18.83;48.54;100583.63;8801867;33;20198;-75
2021/06/02 23:44:56;;;;;;;8.73;5.30;;;;;;;18.80;48.66;100582.94;8825631;33;20376;-74
2021/06/02 23:50:00;;;;;;;5.78;4.35;;;;;;;18.77;48.77;100576.97;8826025;33;20590;-75
2021/06/02 23:55:05;;;;;;;5.80;5.20;;;;;;;18.67;48.79;100579.84;8801103;33;20208;-74
